createdAt,value
2023-03-05T00:01:39.123Z,6.10
2023-03-05T00:04:13.135Z,6.00
2023-03-05T00:06:41.324Z,6.00
2023-03-05T00:09:09.464Z,5.90
2023-03-05T00:11:38.094Z,5.80
2023-03-05T00:14:07.638Z,5.80
2023-03-05T00:16:35.755Z,5.60
2023-03-05T00:19:04.033Z,5.60
2023-03-05T00:21:35.192Z,5.60
2023-03-05T00:24:07.150Z,5.50
2023-03-05T00:26:37.244Z,5.50
2023-03-05T00:29:07.675Z,5.60
2023-03-05T00:31:37.989Z,5.50
2023-03-05T00:34:08.804Z,5.50
2023-03-05T00:36:40.070Z,5.50
2023-03-05T00:39:08.589Z,5.50
2023-03-05T00:41:36.933Z,5.50
2023-03-05T00:44:05.117Z,5.60
2023-03-05T00:46:34.870Z,5.50
2023-03-05T00:49:03.107Z,5.50
2023-03-05T00:51:31.518Z,5.50
2023-03-05T00:53:59.668Z,5.40
2023-03-05T00:56:27.978Z,5.50
2023-03-05T00:58:56.525Z,5.40
2023-03-05T01:01:25.927Z,5.40
2023-03-05T01:03:56.569Z,5.50
2023-03-05T01:06:25.061Z,5.50
2023-03-05T01:08:55.723Z,5.50
2023-03-05T01:11:24.110Z,5.50
2023-03-05T01:13:52.436Z,5.50
2023-03-05T01:16:21.234Z,5.50
2023-03-05T01:18:49.867Z,5.50
2023-03-05T01:21:19.625Z,5.40
2023-03-05T01:23:47.618Z,5.50
2023-03-05T01:26:16.003Z,5.50
2023-03-05T01:28:44.047Z,5.50
2023-03-05T01:31:12.645Z,5.40
2023-03-05T01:33:41.151Z,5.50
2023-03-05T01:36:13.420Z,5.40
2023-03-05T01:38:43.767Z,5.40
2023-03-05T01:41:12.684Z,5.40
2023-03-05T01:43:41.946Z,5.50
2023-03-05T01:46:31.455Z,5.40
2023-03-05T01:49:25.391Z,5.40
2023-03-05T01:52:00.986Z,5.40
2023-03-05T01:54:34.834Z,5.40
2023-03-05T01:57:09.455Z,5.40
2023-03-05T01:59:38.845Z,5.30
2023-03-05T02:02:08.090Z,5.30
2023-03-05T02:04:43.205Z,5.30
2023-03-05T02:07:12.232Z,5.40
2023-03-05T02:09:42.871Z,5.40
2023-03-05T02:12:13.071Z,5.30
2023-03-05T02:14:44.060Z,5.30
2023-03-05T02:17:15.248Z,5.30
2023-03-05T02:19:51.894Z,5.10
2023-03-05T02:22:25.729Z,5.20
2023-03-05T02:24:53.882Z,5.10
2023-03-05T02:27:34.778Z,5.20
2023-03-05T02:30:03.758Z,5.10
2023-03-05T02:32:31.881Z,5.10
2023-03-05T02:35:00.113Z,5.00
2023-03-05T02:37:29.653Z,5.00
2023-03-05T02:39:58.315Z,5.10
2023-03-05T02:42:26.417Z,5.10
2023-03-05T02:44:54.859Z,5.20
2023-03-05T02:47:23.121Z,5.20
2023-03-05T02:49:51.306Z,5.20
2023-03-05T02:52:19.506Z,5.10
2023-03-05T02:54:49.342Z,5.00
2023-03-05T02:57:18.151Z,5.00
2023-03-05T02:59:46.357Z,5.00
2023-03-05T03:02:15.154Z,5.10
2023-03-05T03:04:43.179Z,5.10
2023-03-05T03:07:11.445Z,5.10
2023-03-05T03:09:40.144Z,5.20
2023-03-05T03:12:12.815Z,5.20
2023-03-05T03:14:42.641Z,5.30
2023-03-05T03:17:13.171Z,5.30
2023-03-05T03:19:42.444Z,5.30
2023-03-05T03:22:12.713Z,5.30
2023-03-05T03:24:42.014Z,5.30
2023-03-05T03:27:12.319Z,5.40
2023-03-05T03:29:40.481Z,5.40
2023-03-05T03:32:09.691Z,5.30
2023-03-05T03:34:38.358Z,5.30
2023-03-05T03:37:07.234Z,5.20
2023-03-05T03:39:35.622Z,5.20
2023-03-05T03:42:04.532Z,5.20
2023-03-05T03:44:34.612Z,5.10
2023-03-05T03:47:02.796Z,5.10
2023-03-05T03:49:31.443Z,5.10
2023-03-05T03:52:01.579Z,5.10
2023-03-05T03:54:29.589Z,5.10
2023-03-05T03:56:58.020Z,5.10
2023-03-05T03:59:28.395Z,5.20
2023-03-05T04:01:57.988Z,5.10
2023-03-05T04:04:26.841Z,5.20
2023-03-05T04:06:55.441Z,5.20
2023-03-05T04:09:23.740Z,5.20
2023-03-05T04:11:51.988Z,5.30
2023-03-05T04:14:20.024Z,5.30
2023-03-05T04:16:48.353Z,5.30
2023-03-05T04:19:18.186Z,5.30
2023-03-05T04:21:46.588Z,5.40
2023-03-05T04:24:15.503Z,5.30
2023-03-05T04:26:43.845Z,5.30
2023-03-05T04:29:11.851Z,5.30
2023-03-05T04:31:40.477Z,5.30
2023-03-05T04:34:08.760Z,5.30
2023-03-05T04:36:38.314Z,5.20
2023-03-05T04:39:06.666Z,5.30
2023-03-05T04:41:34.960Z,5.20
2023-03-05T04:44:03.302Z,5.40
2023-03-05T04:46:31.567Z,5.10
2023-03-05T04:49:00.108Z,5.10
2023-03-05T04:51:28.585Z,5.10
2023-03-05T04:53:58.122Z,5.10
2023-03-05T04:56:26.190Z,5.10
2023-03-05T04:58:54.457Z,5.10
2023-03-05T05:01:22.570Z,5.10
2023-03-05T05:03:50.762Z,5.00
2023-03-05T05:06:18.967Z,5.00
2023-03-05T05:08:47.120Z,4.90
2023-03-05T05:11:16.668Z,4.90
2023-03-05T05:13:44.985Z,5.00
2023-03-05T05:16:13.673Z,4.80
2023-03-05T05:18:41.654Z,4.80
2023-03-05T05:21:11.185Z,4.80
2023-03-05T05:23:39.948Z,4.80
2023-03-05T05:26:09.821Z,4.80
2023-03-05T05:28:39.404Z,4.80
2023-03-05T05:31:10.650Z,4.80
2023-03-05T05:33:39.243Z,4.70
2023-03-05T05:36:10.128Z,4.80
2023-03-05T05:38:39.098Z,4.80
2023-03-05T05:41:09.016Z,4.70
2023-03-05T05:43:38.706Z,4.70
2023-03-05T05:46:08.581Z,4.70
2023-03-05T05:48:38.234Z,4.70
2023-03-05T05:51:07.600Z,4.80
2023-03-05T05:53:35.647Z,4.80
2023-03-05T05:56:06.100Z,4.80
2023-03-05T05:58:34.367Z,4.80
2023-03-05T06:01:04.739Z,4.80
2023-03-05T06:03:33.858Z,4.70
2023-03-05T06:06:02.331Z,4.70
2023-03-05T06:08:30.459Z,4.70
2023-03-05T06:10:58.609Z,4.70
2023-03-05T06:13:27.061Z,4.70
2023-03-05T06:15:59.025Z,4.70
2023-03-05T06:18:28.998Z,4.70
2023-03-05T06:20:59.087Z,4.60
2023-03-05T06:23:28.769Z,4.60
2023-03-05T06:26:00.199Z,4.60
2023-03-05T06:28:28.573Z,4.50
2023-03-05T06:31:02.605Z,4.40
2023-03-05T06:33:32.562Z,4.50
2023-03-05T06:36:01.244Z,4.60
2023-03-05T06:38:29.476Z,4.70
2023-03-05T06:41:01.806Z,4.80
2023-03-05T06:43:30.070Z,4.90
2023-03-05T06:46:04.653Z,5.00
2023-03-05T06:48:34.727Z,5.00
2023-03-05T06:51:03.293Z,5.10
2023-03-05T06:53:31.463Z,5.10
2023-03-05T06:56:03.163Z,5.10
2023-03-05T06:58:31.399Z,5.30
2023-03-05T07:00:59.488Z,5.30
2023-03-05T07:03:30.516Z,5.40
2023-03-05T07:06:00.530Z,5.40
2023-03-05T07:08:29.124Z,5.60
2023-03-05T07:10:57.221Z,5.50
2023-03-05T07:13:25.475Z,5.50
2023-03-05T07:15:53.975Z,5.50
2023-03-05T07:18:23.000Z,5.60
2023-03-05T07:20:52.661Z,5.60
2023-03-05T07:23:22.375Z,5.70
2023-03-05T07:25:52.440Z,5.70
2023-03-05T07:28:20.636Z,5.70
2023-03-05T07:30:59.182Z,5.80
2023-03-05T07:33:27.980Z,5.80
2023-03-05T07:35:58.669Z,5.80
2023-03-05T07:38:28.641Z,5.70
2023-03-05T07:40:58.826Z,5.60
2023-03-05T07:43:29.561Z,5.60
2023-03-05T07:46:14.142Z,5.50
2023-03-05T07:48:44.095Z,5.40
2023-03-05T07:51:20.396Z,5.50
2023-03-05T07:53:57.699Z,5.50
2023-03-05T07:56:29.071Z,5.40
2023-03-05T07:59:00.586Z,5.50
2023-03-05T08:01:34.379Z,5.60
2023-03-05T08:04:05.601Z,5.50
2023-03-05T08:06:34.071Z,5.60
2023-03-05T08:09:04.106Z,5.70
2023-03-05T08:11:32.392Z,5.80
2023-03-05T08:14:02.278Z,5.90
2023-03-05T08:16:30.578Z,6.00
2023-03-05T08:18:59.893Z,6.10
2023-03-05T08:21:31.175Z,6.10
2023-03-05T08:23:59.716Z,6.20
2023-03-05T08:26:31.831Z,6.20
2023-03-05T08:29:00.605Z,6.20
2023-03-05T08:31:30.232Z,6.30
2023-03-05T08:34:00.244Z,6.20
2023-03-05T08:36:33.914Z,6.30
2023-03-05T08:39:02.637Z,6.40
2023-03-05T08:41:34.644Z,6.50
2023-03-05T08:44:03.378Z,6.50
2023-03-05T08:46:33.358Z,6.80
2023-03-05T08:49:08.335Z,6.70
2023-03-05T08:51:37.087Z,6.80
2023-03-05T08:54:08.825Z,6.90
2023-03-05T08:56:41.464Z,6.80
2023-03-05T08:59:12.722Z,6.90
2023-03-05T09:01:43.646Z,6.90
2023-03-05T09:04:12.059Z,6.90
2023-03-05T09:06:41.044Z,6.70
2023-03-05T09:09:09.859Z,6.50
2023-03-05T09:11:39.923Z,6.40
2023-03-05T09:14:09.633Z,6.30
2023-03-05T09:16:40.436Z,6.10
2023-03-05T09:19:10.686Z,5.90
2023-03-05T09:21:38.838Z,5.70
2023-03-05T09:24:07.211Z,5.80
2023-03-05T09:26:35.319Z,5.70
2023-03-05T09:29:06.845Z,5.70
2023-03-05T09:31:37.661Z,5.70
2023-03-05T09:34:06.340Z,5.70
2023-03-05T09:36:35.045Z,5.60
2023-03-05T09:39:04.159Z,5.70
2023-03-05T09:41:47.101Z,5.70
2023-03-05T09:44:26.422Z,5.80
2023-03-05T09:46:59.128Z,5.90
2023-03-05T09:49:40.440Z,5.90
2023-03-05T09:52:17.332Z,6.10
2023-03-05T09:54:49.797Z,6.00
2023-03-05T09:57:22.404Z,6.10
2023-03-05T09:59:55.836Z,6.10
2023-03-05T10:02:27.764Z,6.20
2023-03-05T10:05:01.474Z,6.30
2023-03-05T10:07:33.124Z,6.30
2023-03-05T10:10:03.723Z,6.40
2023-03-05T10:12:42.675Z,6.40
2023-03-05T10:15:18.288Z,6.40
2023-03-05T10:18:03.507Z,6.50
2023-03-05T10:20:55.152Z,6.50
2023-03-05T10:23:30.709Z,6.60
2023-03-05T10:26:05.503Z,6.70
2023-03-05T10:28:46.495Z,6.70
2023-03-05T10:31:31.661Z,6.90
2023-03-05T10:34:31.324Z,6.90
2023-03-05T10:37:27.962Z,7.00
2023-03-05T10:40:18.027Z,7.00
2023-03-05T10:42:55.160Z,7.00
2023-03-05T10:45:27.178Z,7.00
2023-03-05T10:48:03.618Z,7.10
2023-03-05T10:50:37.987Z,7.10
2023-03-05T10:53:15.283Z,7.30
2023-03-05T10:55:43.453Z,7.40
2023-03-05T10:58:13.609Z,7.30
2023-03-05T11:01:04.465Z,7.40
2023-03-05T11:04:10.309Z,7.70
2023-03-05T11:06:41.018Z,7.60
2023-03-05T11:09:29.406Z,7.60
2023-03-05T11:12:12.251Z,7.70
2023-03-05T11:14:45.203Z,7.90
2023-03-05T11:17:29.503Z,8.00
2023-03-05T11:20:19.909Z,8.00
2023-03-05T11:23:04.961Z,7.90
2023-03-05T11:25:35.374Z,8.00
2023-03-05T11:28:32.037Z,7.90
2023-03-05T11:31:08.578Z,8.00
2023-03-05T11:33:38.586Z,8.00
2023-03-05T11:36:26.148Z,8.00
2023-03-05T11:38:56.929Z,7.90
2023-03-05T11:41:31.017Z,7.90
2023-03-05T11:44:05.847Z,8.00
2023-03-05T11:46:43.562Z,7.90
2023-03-05T11:49:17.213Z,8.00
2023-03-05T11:51:52.561Z,8.10
2023-03-05T11:54:25.194Z,8.20
2023-03-05T11:56:53.909Z,8.30
2023-03-05T11:59:28.633Z,8.30
2023-03-05T12:01:58.784Z,8.40
2023-03-05T12:04:28.143Z,8.70
2023-03-05T12:07:00.833Z,8.60
2023-03-05T12:09:34.823Z,8.60
2023-03-05T12:12:13.659Z,8.60
2023-03-05T12:14:50.228Z,8.60
2023-03-05T12:17:25.711Z,8.70
2023-03-05T12:19:58.756Z,8.50
2023-03-05T12:22:34.927Z,8.50
2023-03-05T12:25:24.543Z,8.50
2023-03-05T12:27:52.715Z,8.50
2023-03-05T12:30:58.335Z,8.50
2023-03-05T12:33:37.657Z,8.60
2023-03-05T12:36:35.949Z,8.70
2023-03-05T12:39:45.116Z,8.80
2023-03-05T12:42:46.092Z,8.80
2023-03-05T12:45:36.474Z,8.80
2023-03-05T12:48:42.959Z,8.80
2023-03-05T12:51:15.128Z,8.70
2023-03-05T12:53:43.212Z,8.80
2023-03-05T12:56:25.245Z,8.80
2023-03-05T12:58:56.428Z,8.70
2023-03-05T13:01:46.990Z,8.60
2023-03-05T13:04:19.966Z,8.60
2023-03-05T13:06:48.635Z,8.60
2023-03-05T13:09:21.910Z,8.80
2023-03-05T13:11:53.783Z,8.60
2023-03-05T13:14:34.503Z,8.70
2023-03-05T13:17:04.225Z,8.70
2023-03-05T13:19:36.109Z,8.70
2023-03-05T13:22:10.781Z,8.60
2023-03-05T13:24:38.964Z,8.50
2023-03-05T13:27:26.029Z,8.60
2023-03-05T13:29:55.109Z,8.60
2023-03-05T13:32:27.583Z,8.50
2023-03-05T13:34:57.910Z,8.50
2023-03-05T13:37:27.405Z,8.30
2023-03-05T13:39:58.606Z,8.30
2023-03-05T13:42:31.376Z,8.30
2023-03-05T13:45:01.316Z,8.30
2023-03-05T13:47:30.577Z,8.30
2023-03-05T13:50:00.367Z,8.30
2023-03-05T13:52:31.664Z,8.40
2023-03-05T13:55:00.701Z,8.30
2023-03-05T13:57:40.741Z,8.10
2023-03-05T14:00:24.887Z,8.20
2023-03-05T14:02:55.412Z,8.10
2023-03-05T14:05:25.827Z,8.10
2023-03-05T14:07:54.854Z,8.30
2023-03-05T14:10:32.958Z,8.30
2023-03-05T14:13:06.417Z,8.20
2023-03-05T14:15:36.752Z,8.30
2023-03-05T14:18:22.096Z,8.20
2023-03-05T14:21:03.417Z,8.10
2023-03-05T14:23:49.813Z,8.10
2023-03-05T14:26:28.659Z,8.10
2023-03-05T14:29:02.408Z,8.00
2023-03-05T14:31:40.496Z,8.00
2023-03-05T14:34:09.210Z,7.80
2023-03-05T14:36:39.135Z,8.00
2023-03-05T14:39:08.696Z,8.00
2023-03-05T14:41:41.226Z,8.00
2023-03-05T14:44:20.067Z,7.90
2023-03-05T14:46:50.957Z,7.90
2023-03-05T14:49:21.907Z,7.80
2023-03-05T14:51:50.279Z,7.70
2023-03-05T14:54:23.652Z,7.70
2023-03-05T14:56:52.241Z,7.70
2023-03-05T14:59:22.375Z,7.70
2023-03-05T15:01:56.937Z,7.60
2023-03-05T15:04:25.169Z,7.50
2023-03-05T15:06:53.828Z,7.60
2023-03-05T15:09:24.644Z,7.60
2023-03-05T15:11:52.866Z,7.50
2023-03-05T15:14:22.502Z,7.50
2023-03-05T15:16:50.632Z,7.60
2023-03-05T15:19:19.488Z,7.40
2023-03-05T15:21:50.295Z,7.50
2023-03-05T15:24:22.084Z,7.40
2023-03-05T15:26:52.521Z,7.50
2023-03-05T15:29:22.553Z,7.40
2023-03-05T15:31:54.743Z,7.50
2023-03-05T15:34:23.272Z,7.70
2023-03-05T15:36:55.758Z,7.50
2023-03-05T15:39:24.942Z,7.50
2023-03-05T15:41:54.010Z,7.40
2023-03-05T15:44:34.507Z,7.20
2023-03-05T15:47:04.633Z,7.30
2023-03-05T15:49:33.334Z,7.20
2023-03-05T15:52:04.570Z,7.20
2023-03-05T15:54:35.677Z,7.00
2023-03-05T15:57:03.724Z,6.80
2023-03-05T15:59:36.058Z,6.70
2023-03-05T16:02:04.449Z,6.60
2023-03-05T16:04:35.193Z,6.60
2023-03-05T16:07:05.195Z,6.60
2023-03-05T16:09:37.990Z,6.70
2023-03-05T16:12:10.052Z,6.70
2023-03-05T16:14:41.518Z,6.70
2023-03-05T16:17:10.268Z,6.80
2023-03-05T16:19:43.833Z,6.70
2023-03-05T16:22:15.370Z,6.70
2023-03-05T16:24:47.690Z,6.70
2023-03-05T16:27:17.530Z,6.80
2023-03-05T16:29:47.234Z,6.80
2023-03-05T16:32:18.153Z,6.80
2023-03-05T16:34:48.009Z,6.70
2023-03-05T16:37:24.260Z,6.70
2023-03-05T16:39:58.932Z,6.70
2023-03-05T16:42:27.258Z,6.60
2023-03-05T16:44:58.031Z,6.40
2023-03-05T16:47:26.685Z,6.60
2023-03-05T16:49:54.911Z,6.30
2023-03-05T16:52:23.210Z,6.20
2023-03-05T16:54:54.313Z,6.30
2023-03-05T16:57:25.817Z,6.00
2023-03-05T16:59:57.256Z,6.00
2023-03-05T17:02:25.778Z,5.90
2023-03-05T17:04:55.921Z,6.10
2023-03-05T17:07:25.598Z,5.90
2023-03-05T17:09:56.454Z,5.90
2023-03-05T17:12:26.977Z,5.80
2023-03-05T17:14:58.322Z,5.80
2023-03-05T17:17:26.981Z,5.70
2023-03-05T17:19:59.652Z,5.60
2023-03-05T17:22:28.208Z,5.60
2023-03-05T17:25:02.906Z,5.50
2023-03-05T17:27:31.197Z,5.60
2023-03-05T17:30:01.307Z,5.40
2023-03-05T17:32:29.630Z,5.40
2023-03-05T17:34:58.557Z,5.30
2023-03-05T17:37:26.809Z,5.30
2023-03-05T17:39:55.098Z,5.40
2023-03-05T17:42:23.452Z,5.40
2023-03-05T17:44:55.064Z,5.60
2023-03-05T17:47:26.402Z,5.70
2023-03-05T17:50:00.831Z,5.70
2023-03-05T17:52:29.085Z,5.80
2023-03-05T17:54:59.089Z,5.70
2023-03-05T17:57:49.817Z,5.60
2023-03-05T18:00:20.338Z,5.70
2023-03-05T18:02:50.857Z,5.60
2023-03-05T18:05:23.398Z,5.60
2023-03-05T18:07:52.412Z,5.50
2023-03-05T18:10:22.302Z,5.30
2023-03-05T18:12:56.963Z,5.40
2023-03-05T18:15:26.579Z,5.30
2023-03-05T18:17:56.458Z,5.30
2023-03-05T18:20:29.066Z,5.30
2023-03-05T18:22:57.848Z,5.50
2023-03-05T18:25:31.023Z,5.40
2023-03-05T18:28:00.061Z,5.50
2023-03-05T18:30:29.402Z,5.40
2023-03-05T18:32:59.778Z,5.50
2023-03-05T18:35:29.259Z,5.50
2023-03-05T18:37:57.982Z,5.60
2023-03-05T18:40:28.896Z,5.60
2023-03-05T18:42:57.218Z,5.60
2023-03-05T18:45:25.465Z,5.80
2023-03-05T18:47:54.368Z,5.70
2023-03-05T18:50:27.748Z,5.70
2023-03-05T18:52:56.621Z,5.80
2023-03-05T18:55:26.643Z,5.80
2023-03-05T18:57:55.125Z,5.80
2023-03-05T19:00:25.973Z,5.80
2023-03-05T19:02:54.960Z,5.90
2023-03-05T19:05:29.140Z,5.90
2023-03-05T19:07:57.690Z,5.90
2023-03-05T19:10:26.509Z,5.90
2023-03-05T19:13:05.632Z,5.80
2023-03-05T19:15:33.940Z,5.90
2023-03-05T19:18:04.540Z,5.90
2023-03-05T19:20:34.294Z,5.90
2023-03-05T19:23:02.874Z,5.80
2023-03-05T19:25:31.023Z,5.70
2023-03-05T19:27:59.439Z,5.70
2023-03-05T19:30:28.365Z,5.70
2023-03-05T19:33:00.485Z,5.60
2023-03-05T19:35:28.731Z,5.60
2023-03-05T19:37:58.320Z,5.50
2023-03-05T19:40:30.109Z,5.50
2023-03-05T19:42:59.710Z,5.60
2023-03-05T19:45:30.473Z,5.40
2023-03-05T19:47:58.463Z,5.40
2023-03-05T19:50:29.222Z,5.40
2023-03-05T19:52:58.895Z,5.30
2023-03-05T19:55:27.171Z,5.30
2023-03-05T19:57:55.389Z,5.30
2023-03-05T20:00:26.411Z,5.30
2023-03-05T20:02:54.919Z,5.20
2023-03-05T20:05:25.647Z,5.20
2023-03-05T20:07:54.595Z,5.30
2023-03-05T20:10:24.326Z,5.30
2023-03-05T20:12:52.756Z,5.30
2023-03-05T20:15:29.273Z,5.30
2023-03-05T20:17:58.378Z,5.30
2023-03-05T20:20:26.731Z,5.20
2023-03-05T20:22:55.064Z,5.30
2023-03-05T20:25:39.719Z,5.20
2023-03-05T20:28:08.336Z,5.10
2023-03-05T20:30:37.952Z,5.20
2023-03-05T20:33:06.202Z,5.30
2023-03-05T20:35:37.262Z,5.20
2023-03-05T20:38:20.889Z,5.20
2023-03-05T20:40:51.972Z,5.20
2023-03-05T20:43:20.894Z,5.10
2023-03-05T20:45:49.526Z,5.10
2023-03-05T20:48:17.793Z,5.00
2023-03-05T20:50:46.849Z,5.00
2023-03-05T20:53:15.511Z,5.00
2023-03-05T20:55:44.320Z,5.00
2023-03-05T20:58:14.456Z,4.90
2023-03-05T21:00:42.902Z,4.90
2023-03-05T21:03:11.130Z,4.90
2023-03-05T21:05:53.486Z,4.90
2023-03-05T21:08:21.769Z,4.80
2023-03-05T21:10:50.060Z,4.80
2023-03-05T21:13:20.110Z,4.80
2023-03-05T21:15:48.779Z,4.80
2023-03-05T21:18:16.908Z,4.80
2023-03-05T21:20:45.163Z,4.80
2023-03-05T21:23:13.660Z,4.80
2023-03-05T21:25:42.525Z,4.80
2023-03-05T21:28:17.701Z,4.80
2023-03-05T21:30:49.600Z,4.90
2023-03-05T21:33:23.071Z,4.90
2023-03-05T21:35:52.671Z,4.90
2023-03-05T21:38:23.049Z,4.90
2023-03-05T21:40:52.469Z,4.90
2023-03-05T21:43:23.444Z,4.90
2023-03-05T21:45:54.858Z,5.00
2023-03-05T21:48:24.032Z,5.00
2023-03-05T21:50:53.578Z,5.00
2023-03-05T21:53:22.462Z,5.10
2023-03-05T21:56:04.063Z,5.00
2023-03-05T21:58:33.210Z,5.00
2023-03-05T22:01:03.917Z,5.00
2023-03-05T22:03:32.099Z,5.10
2023-03-05T22:06:00.702Z,5.00
2023-03-05T22:08:29.886Z,4.90
2023-03-05T22:10:58.023Z,4.90
2023-03-05T22:13:26.432Z,4.90
2023-03-05T22:15:56.173Z,4.80
2023-03-05T22:18:27.329Z,4.80
2023-03-05T22:20:56.789Z,4.80
2023-03-05T22:23:29.170Z,4.80
2023-03-05T22:25:58.164Z,4.70
2023-03-05T22:28:27.763Z,4.70
2023-03-05T22:30:56.376Z,4.70
2023-03-05T22:33:27.316Z,4.70
2023-03-05T22:36:01.674Z,4.70
2023-03-05T22:38:29.825Z,4.80
2023-03-05T22:40:58.388Z,4.70
2023-03-05T22:43:26.606Z,4.70
2023-03-05T22:45:54.779Z,4.70
2023-03-05T22:48:22.916Z,4.60
2023-03-05T22:50:57.003Z,4.60
2023-03-05T22:53:25.256Z,4.70
2023-03-05T22:55:54.597Z,4.70
2023-03-05T22:58:22.762Z,4.70
2023-03-05T23:00:51.434Z,4.70
2023-03-05T23:03:19.653Z,4.80
2023-03-05T23:05:47.971Z,4.80
2023-03-05T23:08:17.834Z,4.80
2023-03-05T23:10:46.422Z,4.90
2023-03-05T23:13:14.441Z,4.90
2023-03-05T23:15:42.677Z,5.00
2023-03-05T23:18:11.064Z,5.00
2023-03-05T23:20:39.851Z,5.00
2023-03-05T23:23:08.445Z,5.00
2023-03-05T23:25:38.294Z,5.10
2023-03-05T23:28:06.763Z,5.10
2023-03-05T23:30:37.423Z,5.10
2023-03-05T23:33:08.036Z,5.00
2023-03-05T23:35:38.820Z,5.00
2023-03-05T23:38:09.368Z,5.10
2023-03-05T23:40:41.358Z,4.90
2023-03-05T23:43:09.910Z,4.80
2023-03-05T23:45:38.104Z,4.80
2023-03-05T23:48:06.437Z,4.80
2023-03-05T23:50:36.258Z,4.70
2023-03-05T23:53:05.004Z,4.70
2023-03-05T23:55:35.425Z,4.60
2023-03-05T23:58:05.251Z,4.60
